Time;durP1;ratioP1;P1;durP2;ratioP2;P2;SDS_P1;SDS_P2;PMS_P1;PMS_P2;Temp;Humidity;BMP_temperature;BMP_pressure;BME280_temperature;BME280_humidity;BME280_pressure;Samples;Min_cycle;Max_cycle;Signal;HPM_P1;HPM_P2
2024/01/26 00:06:36;;;;;;;;;;;9.10;99.90;;;;;;6743131;88;20062;-77
2024/01/26 00:16:37;;;;;;;;;;;9.10;99.90;;;;;;6733849;88;20078;-78
2024/01/26 00:26:38;;;;;;;;;;;9.00;99.90;;;;;;6727323;88;20136;-79
2024/01/26 00:36:38;;;;;;;;;;;8.90;99.90;;;;;;6731272;88;20054;-78
2024/01/26 00:46:38;;;;;;;;;;;8.90;99.90;;;;;;6721631;88;20083;-77
2024/01/26 00:56:39;;;;;;;;;;;8.90;99.90;;;;;;6726617;88;20176;-77
2024/01/26 01:06:39;;;;;;;;;;;8.90;99.90;;;;;;6724696;88;20766;-77
2024/01/26 01:16:40;;;;;;;;;;;8.80;99.90;;;;;;6729788;88;20614;-77
2024/01/26 01:26:40;;;;;;;;;;;8.70;99.90;;;;;;6730274;88;20113;-77
2024/01/26 01:36:41;;;;;;;;;;;8.70;99.90;;;;;;6729289;88;20533;-77
2024/01/26 01:46:41;;;;;;;;;;;8.70;99.90;;;;;;6724465;76;20090;-78
2024/01/26 01:56:42;;;;;;;;;;;8.80;99.90;;;;;;6709985;88;20113;-77
2024/01/26 02:06:52;;;;;;;;;;;8.90;99.90;;;;;;6702955;88;20739;-78
2024/01/26 02:16:56;;;;;;;;;;;9.10;99.90;;;;;;6704518;88;20101;-79
2024/01/26 02:26:57;;;;;;;;;;;9.10;99.90;;;;;;6706017;88;20073;-78
2024/01/26 02:36:58;;;;;;;;;;;9.40;99.90;;;;;;6702417;88;20052;-77
2024/01/26 02:46:58;;;;;;;;;;;9.50;99.90;;;;;;6706923;88;20076;-78
2024/01/26 02:56:59;;;;;;;;;;;9.50;99.90;;;;;;6705807;88;20158;-79
2024/01/26 03:06:59;;;;;;;;;;;9.40;99.90;;;;;;6705203;88;20151;-79
2024/01/26 03:17:00;;;;;;;;;;;9.20;99.90;;;;;;6705776;88;20053;-78
2024/01/26 03:27:00;;;;;;;;;;;9.30;99.90;;;;;;6705852;88;20107;-77
2024/01/26 03:37:01;;;;;;;;;;;9.30;99.90;;;;;;6704967;88;20099;-78
2024/01/26 03:47:02;;;;;;;;;;;9.30;99.90;;;;;;6706532;88;20134;-78
2024/01/26 03:57:05;;;;;;;;;;;9.10;99.90;;;;;;6704178;88;20068;-78
2024/01/26 04:07:05;;;;;;;;;;;9.00;99.90;;;;;;6702812;88;20051;-78
2024/01/26 04:17:06;;;;;;;;;;;9.10;99.90;;;;;;6704968;88;20109;-76
2024/01/26 04:27:07;;;;;;;;;;;9.10;99.90;;;;;;6701126;88;20048;-78
2024/01/26 04:37:08;;;;;;;;;;;8.80;99.90;;;;;;6705848;88;20077;-78
2024/01/26 04:47:08;;;;;;;;;;;8.70;99.90;;;;;;6706909;88;20063;-78
2024/01/26 04:57:08;;;;;;;;;;;8.70;99.90;;;;;;6705622;88;20055;-77
2024/01/26 05:07:09;;;;;;;;;;;8.60;99.90;;;;;;6702788;88;21014;-78
2024/01/26 05:17:09;;;;;;;;;;;8.40;99.90;;;;;;6703029;88;20146;-78
2024/01/26 05:27:10;;;;;;;;;;;8.50;99.90;;;;;;6705302;88;20104;-78
2024/01/26 05:37:11;;;;;;;;;;;8.60;99.90;;;;;;6703699;88;20088;-77
2024/01/26 05:47:11;;;;;;;;;;;8.70;99.90;;;;;;6703677;88;20700;-76
2024/01/26 05:57:12;;;;;;;;;;;8.80;99.90;;;;;;6706286;88;20064;-77
2024/01/26 06:07:13;;;;;;;;;;;8.70;99.90;;;;;;6704258;88;20202;-79
2024/01/26 06:17:16;;;;;;;;;;;8.50;99.90;;;;;;6704677;88;20645;-77
2024/01/26 06:27:16;;;;;;;;;;;8.40;99.90;;;;;;6699804;88;20052;-77
2024/01/26 06:37:17;;;;;;;;;;;8.50;99.90;;;;;;6703523;88;20189;-77
2024/01/26 06:47:17;;;;;;;;;;;8.80;99.90;;;;;;6704297;88;20086;-77
2024/01/26 06:57:17;;;;;;;;;;;9.20;99.90;;;;;;6703780;88;20063;-77
2024/01/26 07:07:18;;;;;;;;;;;10.10;99.90;;;;;;6703266;88;20052;-78
2024/01/26 07:17:18;;;;;;;;;;;10.50;99.90;;;;;;6705215;88;20056;-78
2024/01/26 07:27:19;;;;;;;;;;;10.80;99.90;;;;;;6706284;88;20341;-78
2024/01/26 07:37:19;;;;;;;;;;;10.80;99.90;;;;;;6704522;88;20048;-78
2024/01/26 07:58:01;;;;;;;;;;;10.50;99.90;;;;;;6755374;87;20053;-77
2024/01/26 08:08:02;;;;;;;;;;;10.40;99.90;;;;;;6753693;87;20073;-77
2024/01/26 08:18:03;;;;;;;;;;;10.50;99.90;;;;;;6746616;87;20066;-76
2024/01/26 08:28:03;;;;;;;;;;;10.70;99.90;;;;;;6750833;87;20223;-76
2024/01/26 08:38:04;;;;;;;;;;;10.90;99.90;;;;;;6767462;87;20085;-76
2024/01/26 08:48:05;;;;;;;;;;;10.90;99.90;;;;;;6760705;87;20078;-76
2024/01/26 08:58:06;;;;;;;;;;;10.80;99.90;;;;;;6752190;87;20178;-76
2024/01/26 09:08:07;;;;;;;;;;;10.70;99.90;;;;;;6749559;87;20133;-77
2024/01/26 09:18:08;;;;;;;;;;;10.70;99.90;;;;;;6751948;87;20061;-77
2024/01/26 09:28:08;;;;;;;;;;;10.70;99.90;;;;;;6755961;87;20045;-76
2024/01/26 09:38:09;;;;;;;;;;;11.00;99.90;;;;;;6762115;87;20294;-77
2024/01/26 09:48:10;;;;;;;;;;;11.00;99.90;;;;;;6756537;87;20057;-77
2024/01/26 09:58:11;;;;;;;;;;;11.10;99.90;;;;;;6750898;88;20535;-76
2024/01/26 10:08:11;;;;;;;;;;;11.40;99.90;;;;;;6752342;87;20097;-77
2024/01/26 10:18:11;;;;;;;;;;;11.50;99.90;;;;;;6760213;87;20056;-76
2024/01/26 10:28:12;;;;;;;;;;;11.80;99.90;;;;;;6753914;87;20107;-76
2024/01/26 10:38:13;;;;;;;;;;;11.90;99.90;;;;;;6750654;87;20061;-76
2024/01/26 10:48:15;;;;;;;;;;;12.20;99.90;;;;;;6751670;87;20092;-76
2024/01/26 10:58:16;;;;;;;;;;;12.30;99.90;;;;;;6751199;87;20541;-76
2024/01/26 11:08:20;;;;;;;;;;;12.20;99.90;;;;;;6749790;87;20065;-76
2024/01/26 11:18:24;;;;;;;;;;;12.20;99.90;;;;;;6751250;87;20065;-76
2024/01/26 11:28:28;;;;;;;;;;;12.20;99.90;;;;;;6751106;87;20172;-77
2024/01/26 11:38:29;;;;;;;;;;;12.10;99.90;;;;;;6752562;87;20187;-77
2024/01/26 11:48:30;;;;;;;;;;;11.70;99.90;;;;;;6752174;87;20091;-76
2024/01/26 11:58:31;;;;;;;;;;;10.60;99.90;;;;;;6752722;87;20532;-76
2024/01/26 12:08:31;;;;;;;;;;;10.10;99.90;;;;;;6749457;87;20213;-76
2024/01/26 12:18:32;;;;;;;;;;;10.20;99.90;;;;;;6747684;87;20075;-76
2024/01/26 12:28:32;;;;;;;;;;;10.20;99.90;;;;;;6748417;87;20177;-76
2024/01/26 12:38:33;;;;;;;;;;;10.20;99.90;;;;;;6750323;87;20054;-75
2024/01/26 12:48:33;;;;;;;;;;;10.20;99.90;;;;;;6750088;87;20120;-76
2024/01/26 12:58:34;;;;;;;;;;;10.30;99.90;;;;;;6755887;87;20086;-76
2024/01/26 13:08:34;;;;;;;;;;;11.30;99.90;;;;;;6748043;87;20108;-75
2024/01/26 13:18:36;;;;;;;;;;;10.80;99.90;;;;;;6746324;87;20082;-76
2024/01/26 13:28:37;;;;;;;;;;;12.40;99.90;;;;;;6747569;87;20430;-76
2024/01/26 13:38:38;;;;;;;;;;;13.40;99.90;;;;;;6751814;87;20199;-76
2024/01/26 13:48:38;;;;;;;;;;;13.00;99.90;;;;;;6733092;77;20108;-77
2024/01/26 13:58:39;;;;;;;;;;;13.50;99.90;;;;;;6716427;88;20067;-77
2024/01/26 14:08:39;;;;;;;;;;;12.80;99.90;;;;;;6711877;88;20050;-77
2024/01/26 14:18:40;;;;;;;;;;;13.40;99.90;;;;;;6715648;88;20109;-77
2024/01/26 14:28:40;;;;;;;;;;;12.70;99.90;;;;;;6714153;88;20066;-77
2024/01/26 14:38:42;;;;;;;;;;;12.40;99.90;;;;;;6713115;88;20181;-77
2024/01/26 14:48:43;;;;;;;;;;;12.10;99.90;;;;;;6741641;87;20079;-77
2024/01/26 14:58:43;;;;;;;;;;;11.70;99.90;;;;;;6756328;88;20057;-76
2024/01/26 15:08:44;;;;;;;;;;;10.80;99.90;;;;;;6754938;87;20074;-77
2024/01/26 15:18:44;;;;;;;;;;;10.10;99.90;;;;;;6750078;87;20074;-77
2024/01/26 15:28:45;;;;;;;;;;;9.60;99.90;;;;;;6753035;87;20057;-75
2024/01/26 15:38:45;;;;;;;;;;;9.30;99.90;;;;;;6759839;87;20061;-77
2024/01/26 15:48:46;;;;;;;;;;;9.20;99.90;;;;;;6750702;87;20053;-77
2024/01/26 15:58:46;;;;;;;;;;;9.00;99.90;;;;;;6748629;87;20058;-76
2024/01/26 16:08:48;;;;;;;;;;;8.70;99.90;;;;;;6745815;87;20130;-76
2024/01/26 16:18:48;;;;;;;;;;;8.40;99.90;;;;;;6752235;87;20097;-76
2024/01/26 16:28:49;;;;;;;;;;;8.20;99.90;;;;;;6754195;87;20064;-76
2024/01/26 16:38:50;;;;;;;;;;;8.00;99.90;;;;;;6750856;87;20172;-75
2024/01/26 16:48:50;;;;;;;;;;;7.80;99.90;;;;;;6754021;87;20097;-75
2024/01/26 16:58:51;;;;;;;;;;;7.50;99.90;;;;;;6754481;87;20106;-75
2024/01/26 17:08:51;;;;;;;;;;;7.50;99.90;;;;;;6749744;87;20615;-76
2024/01/26 17:18:55;;;;;;;;;;;7.30;99.90;;;;;;6752508;87;20066;-76
2024/01/26 17:28:55;;;;;;;;;;;7.10;99.90;;;;;;6751945;87;20126;-76
2024/01/26 17:38:56;;;;;;;;;;;6.90;99.90;;;;;;6757177;87;20062;-75
2024/01/26 17:48:56;;;;;;;;;;;7.00;99.90;;;;;;6748477;88;20054;-75
2024/01/26 17:58:57;;;;;;;;;;;7.00;99.90;;;;;;6752154;88;20605;-75
2024/01/26 18:08:57;;;;;;;;;;;6.90;99.90;;;;;;6749378;88;20528;-76
2024/01/26 18:18:58;;;;;;;;;;;6.80;99.90;;;;;;6754005;88;20057;-75
2024/01/26 18:28:58;;;;;;;;;;;6.70;99.90;;;;;;6753066;88;20148;-75
2024/01/26 18:38:59;;;;;;;;;;;6.70;99.90;;;;;;6753825;88;20057;-76
2024/01/26 18:48:59;;;;;;;;;;;6.70;99.90;;;;;;6752585;88;20117;-75
2024/01/26 18:59:01;;;;;;;;;;;6.70;99.90;;;;;;6751578;88;20050;-77
2024/01/26 19:09:02;;;;;;;;;;;6.70;99.90;;;;;;6751775;88;20041;-77
2024/01/26 19:19:02;;;;;;;;;;;6.70;99.90;;;;;;6751003;88;20489;-76
2024/01/26 19:29:03;;;;;;;;;;;6.70;99.90;;;;;;6751986;88;20058;-77
2024/01/26 19:39:03;;;;;;;;;;;6.70;99.90;;;;;;6751881;88;20061;-76
2024/01/26 19:49:04;;;;;;;;;;;6.60;99.90;;;;;;6745271;77;20127;-76
2024/01/26 19:59:04;;;;;;;;;;;6.40;99.90;;;;;;6732971;88;20090;-77
2024/01/26 20:09:05;;;;;;;;;;;6.30;99.90;;;;;;6737711;88;20065;-78
2024/01/26 20:19:05;;;;;;;;;;;6.20;99.90;;;;;;6740500;88;20051;-77
2024/01/26 20:29:06;;;;;;;;;;;6.10;99.90;;;;;;6734133;88;20046;-77
2024/01/26 20:39:06;;;;;;;;;;;6.00;99.90;;;;;;6742548;87;20076;-78
2024/01/26 20:49:07;;;;;;;;;;;5.90;99.90;;;;;;6732595;88;20578;-76
2024/01/26 20:59:07;;;;;;;;;;;5.90;99.90;;;;;;6733614;88;20089;-77
2024/01/26 21:09:08;;;;;;;;;;;5.90;99.90;;;;;;6733213;88;20054;-77
2024/01/26 21:19:08;;;;;;;;;;;5.70;99.90;;;;;;6733280;88;20131;-77
2024/01/26 21:29:09;;;;;;;;;;;5.60;99.90;;;;;;6733736;88;20053;-77
2024/01/26 21:39:09;;;;;;;;;;;5.50;99.90;;;;;;6733117;88;20083;-77
2024/01/26 21:49:11;;;;;;;;;;;5.40;99.90;;;;;;6733796;88;20125;-77
2024/01/26 21:59:11;;;;;;;;;;;5.30;99.90;;;;;;6733728;88;20055;-76
2024/01/26 22:09:12;;;;;;;;;;;5.40;99.90;;;;;;6735679;88;20068;-76
2024/01/26 22:19:12;;;;;;;;;;;5.20;99.90;;;;;;6736776;88;20598;-76
2024/01/26 22:29:13;;;;;;;;;;;5.20;99.90;;;;;;6736585;88;20084;-77
2024/01/26 22:39:13;;;;;;;;;;;5.00;99.90;;;;;;6743456;88;20112;-76
2024/01/26 22:49:14;;;;;;;;;;;4.90;99.90;;;;;;6736718;88;20066;-77
2024/01/26 22:59:14;;;;;;;;;;;4.90;99.90;;;;;;6740774;88;20089;-77
2024/01/26 23:09:15;;;;;;;;;;;4.70;99.90;;;;;;6741233;88;20097;-77
2024/01/26 23:19:18;;;;;;;;;;;4.60;99.90;;;;;;6741449;88;20058;-79
2024/01/26 23:29:19;;;;;;;;;;;4.50;99.90;;;;;;6736137;88;20660;-78
2024/01/26 23:39:19;;;;;;;;;;;4.40;99.90;;;;;;6734962;88;20214;-77
2024/01/26 23:49:19;;;;;;;;;;;4.30;99.90;;;;;;6739803;88;20186;-77
2024/01/26 23:59:20;;;;;;;;;;;4.30;99.90;;;;;;6744393;88;20046;-76
